createdAt,value
2023-04-18T00:00:43.061Z,99058.13
2023-04-18T00:03:28.675Z,99118.75
2023-04-18T00:06:13.974Z,99142.19
2023-04-18T00:08:59.149Z,99139.41
2023-04-18T00:11:44.620Z,99144.09
2023-04-18T00:14:30.153Z,99142.44
2023-04-18T00:17:15.913Z,99092.66
2023-04-18T00:20:01.482Z,99136.78
2023-04-18T00:22:46.798Z,99145.19
2023-04-18T00:25:32.200Z,99137.44
2023-04-18T00:28:17.803Z,99115.81
2023-04-18T00:31:03.384Z,99136.34
2023-04-18T00:33:50.699Z,99139.75
2023-04-18T00:36:35.690Z,99130.56
2023-04-18T00:39:21.214Z,99131.53
2023-04-18T00:42:06.478Z,99131.72
2023-04-18T00:44:51.917Z,99135.94
2023-04-18T00:47:37.526Z,99142.16
2023-04-18T00:50:23.617Z,99074.06
2023-04-18T00:53:10.121Z,99107.69
2023-04-18T00:55:55.681Z,99058.38
2023-04-18T00:58:41.065Z,99131.44
2023-04-18T01:01:26.414Z,99130.16
2023-04-18T01:04:11.788Z,99131.25
2023-04-18T01:06:59.431Z,99127.00
2023-04-18T01:09:47.801Z,99127.03
2023-04-18T01:12:33.176Z,99127.00
2023-04-18T01:15:18.581Z,99111.84
2023-04-18T01:18:04.098Z,99114.91
2023-04-18T01:20:53.838Z,99070.22
2023-04-18T01:23:38.999Z,99092.94
2023-04-18T01:26:24.430Z,99113.50
2023-04-18T01:29:09.908Z,99113.06
2023-04-18T01:31:55.361Z,99116.63
2023-04-18T01:34:41.039Z,99111.78
2023-04-18T01:37:26.351Z,99104.50
2023-04-18T01:40:13.049Z,99073.22
2023-04-18T01:42:58.438Z,99120.66
2023-04-18T01:45:43.878Z,99110.06
2023-04-18T01:48:29.188Z,99108.28
2023-04-18T01:51:14.285Z,99110.63
2023-04-18T01:53:59.399Z,99116.78
2023-04-18T01:56:44.518Z,99103.31
2023-04-18T01:59:29.754Z,99092.81
2023-04-18T02:02:15.372Z,99102.47
2023-04-18T02:05:00.461Z,99101.38
2023-04-18T02:07:45.844Z,99079.50
2023-04-18T02:10:30.967Z,99097.69
2023-04-18T02:13:16.313Z,99015.13
2023-04-18T02:16:01.829Z,99098.06
2023-04-18T02:18:47.347Z,99054.41
2023-04-18T02:21:32.806Z,99098.38
2023-04-18T02:24:18.492Z,99091.75
2023-04-18T02:27:03.970Z,99090.78
2023-04-18T02:29:49.163Z,99089.13
2023-04-18T02:32:34.661Z,99075.19
2023-04-18T02:35:21.151Z,99092.44
2023-04-18T02:38:06.722Z,99086.81
2023-04-18T02:40:51.976Z,99083.50
2023-04-18T02:43:38.963Z,99085.69
2023-04-18T02:46:25.052Z,99092.28
2023-04-18T02:49:10.851Z,99095.88
2023-04-18T02:51:56.247Z,99075.63
2023-04-18T02:54:44.540Z,99099.03
2023-04-18T02:57:34.756Z,99092.56
2023-04-18T03:00:37.667Z,99093.16
2023-04-18T03:03:40.279Z,99102.50
2023-04-18T03:06:42.180Z,99087.91
2023-04-18T03:09:27.587Z,99089.97
2023-04-18T03:12:17.381Z,99106.31
2023-04-18T03:15:02.679Z,99105.56
2023-04-18T03:17:48.790Z,99107.63
2023-04-18T03:20:34.812Z,99112.97
2023-04-18T03:23:20.291Z,99110.22
2023-04-18T03:26:06.962Z,99114.06
2023-04-18T03:28:54.381Z,99114.72
2023-04-18T03:31:40.000Z,99114.06
2023-04-18T03:34:25.241Z,99111.47
2023-04-18T03:37:12.380Z,99107.44
2023-04-18T03:40:03.918Z,99116.13
2023-04-18T03:42:49.641Z,99119.94
2023-04-18T03:45:35.339Z,99115.72
2023-04-18T03:48:20.613Z,99041.84
2023-04-18T03:51:06.611Z,99111.94
2023-04-18T03:53:52.355Z,99112.31
2023-04-18T03:56:37.943Z,99114.81
2023-04-18T03:59:23.300Z,99112.09
2023-04-18T04:02:09.624Z,99118.44
2023-04-18T04:04:55.227Z,99115.88
2023-04-18T04:07:40.937Z,99098.97
2023-04-18T04:10:26.708Z,99051.13
2023-04-18T04:13:13.018Z,99129.56
2023-04-18T04:16:00.155Z,99121.97
2023-04-18T04:18:45.858Z,99111.88
2023-04-18T04:21:32.562Z,99122.53
2023-04-18T04:24:18.687Z,99126.09
2023-04-18T04:27:06.074Z,99127.78
2023-04-18T04:29:54.115Z,99127.00
2023-04-18T04:32:39.538Z,99133.97
2023-04-18T04:35:25.019Z,99137.84
2023-04-18T04:38:10.435Z,99140.28
2023-04-18T04:41:02.559Z,99147.06
2023-04-18T04:43:49.646Z,99140.47
2023-04-18T04:46:37.702Z,99148.72
2023-04-18T04:49:26.041Z,99150.13
2023-04-18T04:52:11.285Z,99146.38
2023-04-18T04:54:56.954Z,99144.22
2023-04-18T04:57:43.320Z,99151.06
2023-04-18T05:00:43.460Z,99148.44
2023-04-18T05:03:28.753Z,99157.00
2023-04-18T05:06:15.633Z,99154.81
2023-04-18T05:09:01.284Z,99159.09
2023-04-18T05:11:47.461Z,99156.19
2023-04-18T05:14:32.991Z,99160.97
2023-04-18T05:17:18.228Z,99127.91
2023-04-18T05:20:03.800Z,99104.41
2023-04-18T05:22:49.422Z,99164.25
2023-04-18T05:25:35.430Z,99164.31
2023-04-18T05:28:25.350Z,99164.50
2023-04-18T05:31:10.721Z,99164.16
2023-04-18T05:33:55.799Z,99168.44
2023-04-18T05:36:40.959Z,99165.00
2023-04-18T05:39:26.489Z,99171.91
2023-04-18T05:42:11.862Z,99168.06
2023-04-18T05:44:57.263Z,99173.03
2023-04-18T05:47:42.484Z,99170.13
2023-04-18T05:50:28.009Z,99165.34
2023-04-18T05:53:13.132Z,99178.94
2023-04-18T05:55:58.497Z,99179.13
2023-04-18T05:58:43.655Z,99181.34
2023-04-18T06:01:29.158Z,99181.63
2023-04-18T06:04:14.897Z,99187.25
2023-04-18T06:07:00.747Z,99194.56
2023-04-18T06:09:46.303Z,99196.91
2023-04-18T06:12:32.013Z,99191.91
2023-04-18T06:15:17.465Z,99184.66
2023-04-18T06:18:03.149Z,99180.78
2023-04-18T06:20:48.752Z,99189.56
2023-04-18T06:23:34.218Z,99198.00
2023-04-18T06:26:19.250Z,99202.84
2023-04-18T06:29:04.584Z,99212.78
2023-04-18T06:31:49.851Z,99210.91
2023-04-18T06:34:35.057Z,99217.81
2023-04-18T06:37:21.038Z,99212.41
2023-04-18T06:40:06.875Z,99217.78
2023-04-18T06:42:52.352Z,99186.59
2023-04-18T06:45:39.059Z,99193.22
2023-04-18T06:48:24.615Z,99192.81
2023-04-18T06:51:09.883Z,99218.91
2023-04-18T06:53:55.166Z,99184.94
2023-04-18T06:56:40.641Z,99200.63
2023-04-18T06:59:26.760Z,99231.59
2023-04-18T07:02:12.019Z,99228.31
2023-04-18T07:04:57.728Z,99228.19
2023-04-18T07:07:43.493Z,99154.81
2023-04-18T07:10:30.207Z,99234.38
2023-04-18T07:13:15.570Z,99213.31
2023-04-18T07:16:00.733Z,99237.28
2023-04-18T07:18:46.398Z,99219.75
2023-04-18T07:21:31.623Z,99241.97
2023-04-18T07:24:17.057Z,99241.03
2023-04-18T07:27:02.751Z,99226.38
2023-04-18T07:29:47.902Z,99243.78
2023-04-18T07:32:33.485Z,99219.78
2023-04-18T07:35:18.930Z,99247.63
2023-04-18T07:38:04.214Z,99250.66
2023-04-18T07:40:57.035Z,99194.69
2023-04-18T07:43:42.204Z,99250.66
2023-04-18T07:46:27.911Z,99259.63
2023-04-18T07:49:13.746Z,99260.56
2023-04-18T07:51:59.414Z,99261.53
2023-04-18T07:54:44.751Z,99263.34
2023-04-18T07:57:30.164Z,99270.19
2023-04-18T08:00:17.119Z,99274.22
2023-04-18T08:03:02.879Z,99278.91
2023-04-18T08:05:48.352Z,99277.00
2023-04-18T08:08:34.466Z,99192.81
2023-04-18T08:11:19.725Z,99276.09
2023-04-18T08:14:04.890Z,99281.00
2023-04-18T08:16:50.209Z,99277.63
2023-04-18T08:19:37.384Z,99279.56
2023-04-18T08:22:22.541Z,99271.97
2023-04-18T08:25:08.564Z,99192.56
2023-04-18T08:27:53.652Z,99272.94
2023-04-18T08:30:38.785Z,99265.81
2023-04-18T08:33:24.554Z,99278.50
2023-04-18T08:36:10.204Z,99284.31
2023-04-18T08:38:55.574Z,99287.88
2023-04-18T08:41:42.762Z,99270.31
2023-04-18T08:44:28.606Z,99221.53
2023-04-18T08:47:14.781Z,99291.94
2023-04-18T08:50:01.033Z,99293.34
2023-04-18T08:52:46.906Z,99290.44
2023-04-18T08:55:32.139Z,99291.81
2023-04-18T08:58:20.827Z,99287.88
2023-04-18T09:01:06.278Z,99284.00
2023-04-18T09:03:51.531Z,99277.06
2023-04-18T09:06:51.579Z,99169.09
2023-04-18T09:09:44.793Z,99295.81
2023-04-18T09:12:30.322Z,99290.59
2023-04-18T09:15:18.251Z,99294.91
2023-04-18T09:18:09.530Z,99277.94
2023-04-18T09:20:55.038Z,99296.44
2023-04-18T09:23:40.551Z,99289.41
2023-04-18T09:26:35.106Z,99286.22
2023-04-18T09:29:21.664Z,99194.59
2023-04-18T09:32:07.530Z,99296.03
2023-04-18T09:34:58.288Z,99291.47
2023-04-18T09:37:50.210Z,99289.16
2023-04-18T09:40:35.725Z,99205.28
2023-04-18T09:43:21.321Z,99245.56
2023-04-18T09:46:07.977Z,99296.44
2023-04-18T09:48:53.234Z,99261.69
2023-04-18T09:51:41.222Z,99288.16
2023-04-18T09:54:32.314Z,99291.03
2023-04-18T09:57:18.362Z,99290.75
2023-04-18T10:00:13.986Z,99292.13
2023-04-18T10:03:05.747Z,99290.56
2023-04-18T10:05:53.105Z,99279.25
2023-04-18T10:08:39.741Z,99289.41
2023-04-18T10:11:25.704Z,99286.09
2023-04-18T10:14:14.530Z,99297.38
2023-04-18T10:17:00.772Z,99290.88
2023-04-18T10:19:46.197Z,99291.78
2023-04-18T10:22:33.161Z,99301.00
2023-04-18T10:25:40.383Z,99286.72
2023-04-18T10:28:25.980Z,99268.44
2023-04-18T10:31:11.596Z,99295.03
2023-04-18T10:37:05.624Z,99184.22
2023-04-18T10:39:57.595Z,99293.81
2023-04-18T10:42:52.406Z,99286.28
2023-04-18T10:45:37.764Z,99290.41
2023-04-18T10:48:27.596Z,99299.00
2023-04-18T10:51:17.719Z,99300.91
2023-04-18T10:54:05.179Z,99293.84
2023-04-18T10:56:57.608Z,99285.16
2023-04-18T10:59:47.911Z,99294.63
2023-04-18T11:02:33.565Z,99289.91
2023-04-18T11:05:21.050Z,99283.69
2023-04-18T11:08:22.739Z,99282.22
2023-04-18T11:11:08.144Z,99279.16
2023-04-18T11:13:58.041Z,99284.53
2023-04-18T11:16:43.441Z,99285.00
2023-04-18T11:19:28.876Z,99240.94
2023-04-18T11:22:14.957Z,99278.00
2023-04-18T11:25:01.058Z,99269.66
2023-04-18T11:27:48.703Z,99268.72
2023-04-18T11:30:41.368Z,99278.81
2023-04-18T11:33:28.307Z,99194.34
2023-04-18T11:36:13.843Z,99268.88
2023-04-18T11:38:58.871Z,99247.63
2023-04-18T11:41:44.663Z,99267.47
2023-04-18T11:44:30.040Z,99271.03
2023-04-18T11:47:30.155Z,99250.06
2023-04-18T11:50:15.670Z,99274.84
2023-04-18T11:53:01.175Z,99277.38
2023-04-18T11:55:58.562Z,99287.19
2023-04-18T11:58:44.707Z,99279.91
2023-04-18T12:01:30.597Z,99288.03
2023-04-18T12:04:16.738Z,99286.53
2023-04-18T12:07:02.764Z,99290.97
2023-04-18T12:09:54.255Z,99287.88
2023-04-18T12:12:48.293Z,99277.69
2023-04-18T12:15:39.750Z,99271.94
2023-04-18T12:18:26.052Z,99270.31
2023-04-18T12:21:13.383Z,99278.69
2023-04-18T12:24:01.111Z,99268.13
2023-04-18T12:26:48.912Z,99263.72
2023-04-18T12:29:37.371Z,99255.00
2023-04-18T12:32:24.163Z,99258.19
2023-04-18T12:35:10.514Z,99248.63
2023-04-18T12:38:02.025Z,99253.81
2023-04-18T12:40:50.750Z,99218.69
2023-04-18T12:43:38.170Z,99241.19
2023-04-18T12:46:23.638Z,99250.69
2023-04-18T12:49:09.453Z,99248.59
2023-04-18T12:51:54.921Z,99230.81
2023-04-18T12:54:41.266Z,99203.44
2023-04-18T12:57:27.046Z,99251.06
2023-04-18T13:00:14.525Z,99176.13
2023-04-18T13:03:04.030Z,99243.88
2023-04-18T13:05:49.709Z,99247.56
2023-04-18T13:08:35.034Z,99178.72
2023-04-18T13:11:21.033Z,99240.28
2023-04-18T13:14:06.446Z,99226.84
2023-04-18T13:16:52.218Z,99231.19
2023-04-18T13:19:38.094Z,99238.97
2023-04-18T13:22:23.329Z,99213.94
2023-04-18T13:25:10.076Z,99239.28
2023-04-18T13:27:55.560Z,99249.50
2023-04-18T13:30:41.172Z,99231.50
2023-04-18T13:33:26.915Z,99234.34
2023-04-18T13:36:12.375Z,99239.81
2023-04-18T13:38:58.518Z,99232.50
2023-04-18T13:41:43.587Z,99201.31
2023-04-18T13:44:29.705Z,99232.63
2023-04-18T13:47:15.138Z,99233.16
2023-04-18T13:50:00.351Z,99234.31
2023-04-18T13:52:45.446Z,99234.00
2023-04-18T13:55:30.770Z,99236.72
2023-04-18T13:58:16.483Z,99236.88
2023-04-18T14:01:02.368Z,99206.31
2023-04-18T14:03:47.880Z,99221.00
2023-04-18T14:06:33.567Z,99231.91
2023-04-18T14:09:20.386Z,99164.22
2023-04-18T14:12:05.744Z,99236.91
2023-04-18T14:14:51.272Z,99232.94
2023-04-18T14:17:37.125Z,99201.34
2023-04-18T14:20:22.683Z,99234.94
2023-04-18T14:23:08.139Z,99227.25
2023-04-18T14:25:53.344Z,99239.22
2023-04-18T14:28:38.657Z,99236.97
2023-04-18T14:31:25.520Z,99231.44
2023-04-18T14:34:10.675Z,99230.06
2023-04-18T14:36:58.475Z,99231.22
2023-04-18T14:39:43.691Z,99235.47
2023-04-18T14:42:29.218Z,99226.59
2023-04-18T14:45:15.115Z,99192.53
2023-04-18T14:48:01.383Z,99176.06
2023-04-18T14:50:46.931Z,99220.47
2023-04-18T14:53:32.354Z,99220.47
2023-04-18T14:56:18.100Z,99226.88
2023-04-18T14:59:03.323Z,99214.69
2023-04-18T15:01:48.603Z,99223.78
2023-04-18T15:04:34.047Z,99143.53
2023-04-18T15:07:19.447Z,99215.03
2023-04-18T15:10:05.412Z,99232.94
2023-04-18T15:12:50.951Z,99214.06
2023-04-18T15:15:36.079Z,99226.84
2023-04-18T15:18:21.583Z,99233.50
2023-04-18T15:21:06.852Z,99225.00
2023-04-18T15:23:52.121Z,99222.16
2023-04-18T15:26:37.350Z,99229.50
2023-04-18T15:29:22.554Z,99217.38
2023-04-18T15:32:07.968Z,99224.81
2023-04-18T15:34:53.345Z,99232.94
2023-04-18T15:37:38.725Z,99236.25
2023-04-18T15:40:24.241Z,99167.34
2023-04-18T15:43:09.814Z,99227.16
2023-04-18T15:45:55.056Z,99233.34
2023-04-18T15:48:40.160Z,99229.34
2023-04-18T15:51:28.898Z,99236.09
2023-04-18T15:54:14.591Z,99232.97
2023-04-18T15:57:00.270Z,99232.63
2023-04-18T15:59:45.439Z,99228.41
2023-04-18T16:02:30.616Z,99227.38
2023-04-18T16:05:16.316Z,99155.81
2023-04-18T16:08:02.091Z,99237.66
2023-04-18T16:10:47.766Z,99241.59
2023-04-18T16:13:33.570Z,99233.19
2023-04-18T16:16:18.807Z,99179.19
2023-04-18T16:19:04.473Z,99239.34
2023-04-18T16:21:50.049Z,99212.38
2023-04-18T16:24:35.591Z,99228.72
2023-04-18T16:27:21.064Z,99232.47
2023-04-18T16:30:07.129Z,99243.72
2023-04-18T16:32:52.851Z,99203.16
2023-04-18T16:35:38.293Z,99243.16
2023-04-18T16:38:23.551Z,99235.53
2023-04-18T16:41:09.021Z,99235.78
2023-04-18T16:43:54.407Z,99232.34
2023-04-18T16:46:39.656Z,99244.59
2023-04-18T16:49:25.086Z,99253.44
2023-04-18T16:52:10.243Z,99237.84
2023-04-18T16:54:55.595Z,99176.00
2023-04-18T16:57:42.158Z,99253.63
2023-04-18T17:00:27.662Z,99215.03
2023-04-18T17:03:13.068Z,99247.84
2023-04-18T17:05:58.524Z,99249.03
2023-04-18T17:08:43.976Z,99252.81
2023-04-18T17:11:29.105Z,99250.03
2023-04-18T17:14:15.556Z,99251.00
2023-04-18T17:17:01.205Z,99257.97
2023-04-18T17:19:47.163Z,99259.56
2023-04-18T17:22:32.882Z,99266.13
2023-04-18T17:25:18.476Z,99268.66
2023-04-18T17:28:04.135Z,99277.06
2023-04-18T17:30:49.718Z,99258.22
2023-04-18T17:33:35.218Z,99268.22
2023-04-18T17:36:20.974Z,99261.81
2023-04-18T17:39:06.573Z,99267.63
2023-04-18T17:41:52.739Z,99267.38
2023-04-18T17:44:37.748Z,99266.31
2023-04-18T17:47:23.318Z,99227.03
2023-04-18T17:50:08.977Z,99270.16
2023-04-18T17:52:54.486Z,99278.13
2023-04-18T17:55:40.494Z,99283.13
2023-04-18T17:58:26.688Z,99286.38
2023-04-18T18:01:19.404Z,99283.34
2023-04-18T18:04:04.961Z,99129.31
2023-04-18T18:06:57.246Z,99247.94
2023-04-18T18:09:42.922Z,99297.84
2023-04-18T18:12:28.255Z,99260.16
2023-04-18T18:15:14.435Z,99292.59
2023-04-18T18:18:00.052Z,99229.63
2023-04-18T18:20:47.687Z,99292.66
2023-04-18T18:23:32.954Z,99294.53
2023-04-18T18:26:18.329Z,99302.19
2023-04-18T18:29:03.768Z,99299.78
2023-04-18T18:31:49.423Z,99308.72
2023-04-18T18:34:34.522Z,99322.38
2023-04-18T18:37:20.108Z,99273.41
2023-04-18T18:40:06.011Z,99312.94
2023-04-18T18:42:51.653Z,99315.56
2023-04-18T18:45:38.470Z,99262.00
2023-04-18T18:48:24.303Z,99282.47
2023-04-18T18:51:10.039Z,99317.09
2023-04-18T18:53:55.096Z,99302.41
2023-04-18T18:56:40.291Z,99283.53
2023-04-18T18:59:25.922Z,99310.88
2023-04-18T19:02:11.178Z,99312.06
2023-04-18T19:04:56.638Z,99283.97
2023-04-18T19:07:42.450Z,99316.38
2023-04-18T19:10:27.925Z,99312.38
2023-04-18T19:13:13.192Z,99316.59
2023-04-18T19:15:58.800Z,99322.22
2023-04-18T19:18:44.077Z,99318.66
2023-04-18T19:21:29.654Z,99322.22
2023-04-18T19:24:14.944Z,99323.44
2023-04-18T19:27:00.656Z,99315.72
2023-04-18T19:29:45.925Z,99320.41
2023-04-18T19:32:31.381Z,99316.81
2023-04-18T19:35:16.603Z,99311.81
2023-04-18T19:38:02.773Z,99220.97
2023-04-18T19:40:48.282Z,99313.91
2023-04-18T19:43:34.605Z,99310.09
2023-04-18T19:46:20.191Z,99292.63
2023-04-18T19:49:05.862Z,99310.03
2023-04-18T19:51:51.706Z,99294.56
2023-04-18T19:54:37.300Z,99309.31
2023-04-18T19:57:22.845Z,99313.78
2023-04-18T20:00:09.950Z,99314.28
2023-04-18T20:02:58.415Z,99287.41
2023-04-18T20:05:43.711Z,99306.13
2023-04-18T20:08:28.901Z,99315.31
2023-04-18T20:11:14.488Z,99271.44
2023-04-18T20:13:59.790Z,99294.09
2023-04-18T20:16:45.200Z,99324.94
2023-04-18T20:19:30.188Z,99320.47
2023-04-18T20:22:16.437Z,99332.13
2023-04-18T20:25:01.911Z,99313.50
2023-04-18T20:27:47.478Z,99323.44
2023-04-18T20:30:32.997Z,99314.19
2023-04-18T20:33:18.136Z,99318.88
2023-04-18T20:36:04.619Z,99268.00
2023-04-18T20:38:49.773Z,99316.78
2023-04-18T20:41:35.243Z,99321.16
2023-04-18T20:44:20.805Z,99315.47
2023-04-18T20:47:06.627Z,99310.09
2023-04-18T20:49:51.891Z,99314.50
2023-04-18T20:52:37.349Z,99305.69
2023-04-18T20:55:23.009Z,99253.84
2023-04-18T20:58:08.544Z,99309.72
2023-04-18T21:00:54.088Z,99273.09
2023-04-18T21:03:39.484Z,99316.25
2023-04-18T21:06:25.093Z,99314.44
2023-04-18T21:09:10.256Z,99323.09
2023-04-18T21:11:55.357Z,99298.28
2023-04-18T21:14:40.545Z,99301.78
2023-04-18T21:17:25.997Z,99290.63
2023-04-18T21:20:11.456Z,99319.28
2023-04-18T21:22:56.816Z,99316.53
2023-04-18T21:25:42.232Z,99306.44
2023-04-18T21:28:27.928Z,99308.41
2023-04-18T21:31:13.535Z,99316.25
2023-04-18T21:34:03.430Z,99305.72
2023-04-18T21:36:48.742Z,99304.75
2023-04-18T21:39:33.985Z,99308.53
2023-04-18T21:42:19.099Z,99312.50
2023-04-18T21:45:05.082Z,99298.19
2023-04-18T21:47:50.443Z,99305.25
2023-04-18T21:50:35.656Z,99301.78
2023-04-18T21:53:20.851Z,99296.75
2023-04-18T21:56:07.113Z,99294.88
2023-04-18T21:58:52.380Z,99281.94
2023-04-18T22:01:37.947Z,99289.41
2023-04-18T22:04:23.672Z,99290.75
2023-04-18T22:07:09.625Z,99288.19
2023-04-18T22:09:54.945Z,99281.50
2023-04-18T22:12:40.323Z,99247.31
2023-04-18T22:15:25.420Z,99275.84
2023-04-18T22:18:10.614Z,99275.84
2023-04-18T22:20:56.096Z,99273.94
2023-04-18T22:23:41.291Z,99272.38
2023-04-18T22:26:26.787Z,99268.88
2023-04-18T22:29:12.269Z,99260.34
2023-04-18T22:31:57.697Z,99259.38
2023-04-18T22:34:43.075Z,99269.06
2023-04-18T22:37:28.379Z,99257.03
2023-04-18T22:40:13.897Z,99236.78
2023-04-18T22:42:59.119Z,99254.84
2023-04-18T22:45:45.231Z,99259.69
2023-04-18T22:48:30.446Z,99254.41
2023-04-18T22:51:16.212Z,99260.34
2023-04-18T22:54:01.730Z,99254.41
2023-04-18T22:56:50.266Z,99231.34
2023-04-18T22:59:35.705Z,99244.72
2023-04-18T23:02:21.370Z,99248.19
2023-04-18T23:05:06.704Z,99248.13
2023-04-18T23:07:52.450Z,99234.78
2023-04-18T23:10:38.638Z,99200.97
2023-04-18T23:13:24.385Z,99251.81
2023-04-18T23:16:09.673Z,99123.53
2023-04-18T23:18:55.187Z,99246.78
2023-04-18T23:21:40.558Z,99183.34
2023-04-18T23:24:26.230Z,99164.66
2023-04-18T23:27:11.433Z,99168.25
2023-04-18T23:29:56.929Z,99184.19
2023-04-18T23:32:42.203Z,99249.78
2023-04-18T23:35:27.781Z,99218.19
2023-04-18T23:38:13.163Z,99244.31
2023-04-18T23:40:58.730Z,99242.72
2023-04-18T23:43:44.149Z,99240.03
2023-04-18T23:46:29.500Z,99240.25
2023-04-18T23:49:16.021Z,99241.44
2023-04-18T23:52:01.273Z,99230.19
2023-04-18T23:54:46.686Z,99215.91
2023-04-18T23:57:32.461Z,99204.94
